createdAt,value
2018-07-20T00:01:12.007Z,19.34
2018-07-20T00:03:40.332Z,19.30
2018-07-20T00:06:08.670Z,19.37
2018-07-20T00:08:36.988Z,19.30
2018-07-20T00:11:05.369Z,19.24
2018-07-20T00:13:33.707Z,19.24
2018-07-20T00:16:02.024Z,19.23
2018-07-20T00:18:30.329Z,19.19
2018-07-20T00:20:58.635Z,19.17
2018-07-20T00:23:26.984Z,19.10
2018-07-20T00:25:55.329Z,19.03
2018-07-20T00:28:23.708Z,18.99
2018-07-20T00:30:52.060Z,18.88
2018-07-20T00:33:20.404Z,18.91
2018-07-20T00:35:48.731Z,18.89
2018-07-20T00:38:17.047Z,18.90
2018-07-20T00:40:45.373Z,18.90
2018-07-20T00:43:14.013Z,18.84
2018-07-20T00:45:42.324Z,18.79
2018-07-20T00:48:10.647Z,18.73
2018-07-20T00:50:38.959Z,18.66
2018-07-20T00:53:07.318Z,18.66
2018-07-20T00:55:35.644Z,18.71
2018-07-20T00:58:03.982Z,18.60
2018-07-20T01:00:32.319Z,18.53
2018-07-20T01:03:00.670Z,18.52
2018-07-20T01:05:29.043Z,18.50
2018-07-20T01:07:57.441Z,18.47
2018-07-20T01:10:25.788Z,18.41
2018-07-20T01:12:54.117Z,18.42
2018-07-20T01:15:22.493Z,18.44
2018-07-20T01:17:50.817Z,18.30
2018-07-20T01:20:19.130Z,18.28
2018-07-20T01:22:47.674Z,18.23
2018-07-20T01:25:16.130Z,18.16
2018-07-20T01:27:44.438Z,18.21
2018-07-20T01:30:12.779Z,18.14
2018-07-20T01:32:41.084Z,18.14
2018-07-20T01:35:09.435Z,18.13
2018-07-20T01:37:37.856Z,18.08
2018-07-20T01:40:06.165Z,18.07
2018-07-20T01:42:34.540Z,18.04
2018-07-20T01:45:02.885Z,17.94
2018-07-20T01:47:31.232Z,17.91
2018-07-20T01:49:59.551Z,17.89
2018-07-20T01:52:27.887Z,17.93
2018-07-20T01:54:56.233Z,17.92
2018-07-20T01:57:24.563Z,17.86
2018-07-20T01:59:52.890Z,17.86
2018-07-20T02:02:21.200Z,17.79
2018-07-20T02:04:49.493Z,17.74
2018-07-20T02:07:17.803Z,17.74
2018-07-20T02:09:46.131Z,17.74
2018-07-20T02:12:14.462Z,17.70
2018-07-20T02:14:42.771Z,17.70
2018-07-20T02:17:11.098Z,17.63
2018-07-20T02:19:39.431Z,17.52
2018-07-20T02:22:07.747Z,17.47
2018-07-20T02:24:36.065Z,17.46
2018-07-20T02:27:04.405Z,17.51
2018-07-20T02:29:32.814Z,17.56
2018-07-20T02:32:01.100Z,17.51
2018-07-20T02:34:29.441Z,17.40
2018-07-20T02:36:57.756Z,17.43
2018-07-20T02:39:26.105Z,17.41
2018-07-20T02:41:54.436Z,17.46
2018-07-20T02:44:22.882Z,17.39
2018-07-20T02:46:51.205Z,17.32
2018-07-20T02:49:19.522Z,17.27
2018-07-20T02:51:47.860Z,17.31
2018-07-20T02:54:16.196Z,17.32
2018-07-20T02:56:44.498Z,17.29
2018-07-20T02:59:12.829Z,17.24
2018-07-20T03:01:41.184Z,17.20
2018-07-20T03:04:09.516Z,17.24
2018-07-20T03:06:37.903Z,17.19
2018-07-20T03:09:09.444Z,17.06
2018-07-20T03:11:37.785Z,17.15
2018-07-20T03:14:06.209Z,17.18
2018-07-20T03:16:34.546Z,17.14
2018-07-20T03:19:02.869Z,17.15
2018-07-20T03:21:31.212Z,17.08
2018-07-20T03:23:59.563Z,17.10
2018-07-20T03:26:27.928Z,17.04
2018-07-20T03:28:56.245Z,16.96
2018-07-20T03:31:24.588Z,16.91
2018-07-20T03:33:52.905Z,16.94
2018-07-20T03:36:21.252Z,16.94
2018-07-20T03:38:49.588Z,16.85
2018-07-20T03:41:17.909Z,16.84
2018-07-20T03:43:46.244Z,16.82
2018-07-20T03:46:14.560Z,16.98
2018-07-20T03:48:42.868Z,16.98
2018-07-20T03:51:11.199Z,17.03
2018-07-20T03:53:39.560Z,16.99
2018-07-20T03:56:07.902Z,16.98
2018-07-20T03:58:36.247Z,17.02
2018-07-20T04:01:04.628Z,17.01
2018-07-20T04:03:32.987Z,16.99
2018-07-20T04:06:01.306Z,17.02
2018-07-20T04:08:29.623Z,17.05
2018-07-20T04:10:57.945Z,17.07
2018-07-20T04:13:26.240Z,17.05
2018-07-20T04:15:54.576Z,17.05
2018-07-20T04:18:22.892Z,17.08
2018-07-20T04:20:51.197Z,17.16
2018-07-20T04:23:19.560Z,17.21
2018-07-20T04:25:47.877Z,17.21
2018-07-20T04:28:16.248Z,17.27
2018-07-20T04:30:44.583Z,17.30
2018-07-20T04:33:12.889Z,17.36
2018-07-20T04:35:41.220Z,17.43
2018-07-20T04:38:09.542Z,17.46
2018-07-20T04:40:37.912Z,17.47
2018-07-20T04:43:06.257Z,17.54
2018-07-20T04:45:34.580Z,17.61
2018-07-20T04:48:02.962Z,17.64
2018-07-20T04:50:31.301Z,17.72
2018-07-20T04:52:59.649Z,17.77
2018-07-20T04:55:28.017Z,17.87
2018-07-20T04:57:56.430Z,17.90
2018-07-20T05:00:24.877Z,17.96
2018-07-20T05:02:53.222Z,18.06
2018-07-20T05:05:21.566Z,18.11
2018-07-20T05:07:49.904Z,18.16
2018-07-20T05:10:18.256Z,18.21
2018-07-20T05:12:46.699Z,18.28
2018-07-20T05:15:15.044Z,18.40
2018-07-20T05:17:43.388Z,18.45
2018-07-20T05:20:11.735Z,18.56
2018-07-20T05:22:40.076Z,18.64
2018-07-20T05:25:08.424Z,18.74
2018-07-20T05:27:36.772Z,18.81
2018-07-20T05:30:05.665Z,18.92
2018-07-20T05:32:34.048Z,19.01
2018-07-20T05:35:02.380Z,19.11
2018-07-20T05:37:30.701Z,19.23
2018-07-20T05:39:58.994Z,19.37
2018-07-20T05:42:27.320Z,19.49
2018-07-20T05:44:55.687Z,19.59
2018-07-20T05:47:24.093Z,19.74
2018-07-20T05:49:52.458Z,19.88
2018-07-20T05:52:20.800Z,20.07
2018-07-20T05:54:49.179Z,20.20
2018-07-20T05:57:17.553Z,20.31
2018-07-20T05:59:46.126Z,20.42
2018-07-20T06:02:14.916Z,20.52
2018-07-20T06:04:43.271Z,20.68
2018-07-20T06:07:11.630Z,20.79
2018-07-20T06:09:39.993Z,20.89
2018-07-20T06:12:08.345Z,21.00
2018-07-20T06:14:36.710Z,21.08
2018-07-20T06:17:05.049Z,21.32
2018-07-20T06:19:33.381Z,21.52
2018-07-20T06:22:01.724Z,21.62
2018-07-20T06:24:30.075Z,21.77
2018-07-20T06:26:58.435Z,21.87
2018-07-20T06:29:26.768Z,22.08
2018-07-20T06:31:55.106Z,22.49
2018-07-20T06:34:23.445Z,23.10
2018-07-20T06:36:51.775Z,23.91
2018-07-20T06:39:20.104Z,24.10
2018-07-20T06:41:48.479Z,24.36
2018-07-20T06:44:16.828Z,25.39
2018-07-20T06:46:45.186Z,25.84
2018-07-20T06:49:13.538Z,26.51
2018-07-20T06:51:41.878Z,26.68
2018-07-20T06:54:10.195Z,27.97
2018-07-20T06:56:38.526Z,27.85
2018-07-20T06:59:06.880Z,28.67
2018-07-20T07:01:35.208Z,28.71
2018-07-20T07:04:03.627Z,29.22
2018-07-20T07:06:31.965Z,29.92
2018-07-20T07:09:00.379Z,30.23
2018-07-20T07:11:28.724Z,30.49
2018-07-20T07:13:57.071Z,31.25
2018-07-20T07:16:25.404Z,31.26
2018-07-20T07:18:53.731Z,31.66
2018-07-20T07:21:22.136Z,31.22
2018-07-20T07:23:50.513Z,32.08
2018-07-20T07:26:18.829Z,31.72
2018-07-20T07:28:47.173Z,31.31
2018-07-20T07:31:15.519Z,31.42
2018-07-20T07:33:43.864Z,31.07
2018-07-20T07:36:12.223Z,31.26
2018-07-20T07:38:40.585Z,31.94
2018-07-20T07:41:09.079Z,32.42
2018-07-20T07:43:37.415Z,33.53
2018-07-20T07:46:05.802Z,33.25
2018-07-20T07:48:34.125Z,32.05
2018-07-20T07:51:02.436Z,31.52
2018-07-20T07:53:30.855Z,32.11
2018-07-20T07:55:59.179Z,32.61
2018-07-20T07:58:27.521Z,33.46
2018-07-20T08:00:55.838Z,33.80
2018-07-20T08:03:24.177Z,34.18
2018-07-20T08:05:52.519Z,34.55
2018-07-20T08:08:20.854Z,35.60
2018-07-20T08:10:49.176Z,36.03
2018-07-20T08:13:17.497Z,36.43
2018-07-20T08:15:45.885Z,35.83
2018-07-20T08:18:14.217Z,36.16
2018-07-20T08:20:42.618Z,36.27
2018-07-20T08:23:10.923Z,36.17
2018-07-20T08:25:39.272Z,36.65
2018-07-20T08:28:07.610Z,36.64
2018-07-20T08:30:35.936Z,36.87
2018-07-20T08:33:04.277Z,36.46
2018-07-20T08:35:32.625Z,36.67
2018-07-20T08:38:00.937Z,37.00
2018-07-20T08:40:29.366Z,37.67
2018-07-20T08:42:57.793Z,37.89
2018-07-20T08:45:26.171Z,38.59
2018-07-20T08:47:54.584Z,38.23
2018-07-20T08:50:22.915Z,37.62
2018-07-20T08:52:51.234Z,38.53
2018-07-20T08:55:19.528Z,39.10
2018-07-20T08:57:47.991Z,39.27
2018-07-20T09:00:16.305Z,39.72
2018-07-20T09:02:44.638Z,39.63
2018-07-20T09:05:12.944Z,40.74
2018-07-20T09:07:41.284Z,40.17
2018-07-20T09:10:09.905Z,38.83
2018-07-20T09:12:38.228Z,40.36
2018-07-20T09:15:06.568Z,39.86
2018-07-20T09:17:34.901Z,40.33
2018-07-20T09:20:03.233Z,40.48
2018-07-20T09:22:31.556Z,39.55
2018-07-20T09:24:59.874Z,40.85
2018-07-20T09:27:28.212Z,40.97
2018-07-20T09:29:56.527Z,40.59
2018-07-20T09:32:24.851Z,40.77
2018-07-20T09:34:53.176Z,40.31
2018-07-20T09:37:21.495Z,40.53
2018-07-20T09:39:49.837Z,40.81
2018-07-20T09:42:18.207Z,40.46
2018-07-20T09:44:46.560Z,40.78
2018-07-20T09:47:14.885Z,40.83
2018-07-20T09:49:43.251Z,40.79
2018-07-20T09:52:11.669Z,40.92
2018-07-20T09:54:40.005Z,42.42
2018-07-20T09:57:08.932Z,41.71
2018-07-20T09:59:37.281Z,42.17
2018-07-20T10:02:05.780Z,41.55
2018-07-20T10:04:34.131Z,41.18
2018-07-20T10:07:02.449Z,41.11
2018-07-20T10:09:30.788Z,41.27
2018-07-20T10:11:59.166Z,41.71
2018-07-20T10:14:27.516Z,41.28
2018-07-20T10:16:55.863Z,42.18
2018-07-20T10:19:24.202Z,41.83
2018-07-20T10:21:52.515Z,39.82
2018-07-20T10:24:20.823Z,37.71
2018-07-20T10:26:49.154Z,40.36
2018-07-20T10:29:17.512Z,40.38
2018-07-20T10:31:45.851Z,41.51
2018-07-20T10:34:14.165Z,41.60
2018-07-20T10:36:42.519Z,41.05
2018-07-20T10:39:11.320Z,40.61
2018-07-20T10:41:39.655Z,40.06
2018-07-20T10:44:07.990Z,39.69
2018-07-20T10:46:36.397Z,39.54
2018-07-20T10:49:04.980Z,38.58
2018-07-20T10:51:33.307Z,38.00
2018-07-20T10:54:01.610Z,37.08
2018-07-20T10:56:29.910Z,35.96
2018-07-20T10:58:58.222Z,35.57
2018-07-20T11:01:26.632Z,35.94
2018-07-20T11:03:55.022Z,34.82
2018-07-20T11:06:23.348Z,33.43
2018-07-20T11:08:51.633Z,32.75
2018-07-20T11:11:19.938Z,33.58
2018-07-20T11:13:48.277Z,32.84
2018-07-20T11:16:16.620Z,32.50
2018-07-20T11:18:44.946Z,32.16
2018-07-20T11:21:13.272Z,31.90
2018-07-20T11:23:41.589Z,31.46
2018-07-20T11:26:09.999Z,31.49
2018-07-20T11:28:38.337Z,31.13
2018-07-20T11:31:06.655Z,31.00
2018-07-20T11:33:34.992Z,30.83
2018-07-20T11:36:03.381Z,30.59
2018-07-20T11:38:31.690Z,30.69
2018-07-20T11:41:00.036Z,30.62
2018-07-20T11:43:28.369Z,30.53
2018-07-20T11:45:56.725Z,30.04
2018-07-20T11:48:25.855Z,29.99
2018-07-20T11:50:54.200Z,29.86
2018-07-20T11:53:22.508Z,29.80
2018-07-20T11:55:50.898Z,29.63
2018-07-20T11:58:19.186Z,29.68
2018-07-20T12:00:47.510Z,29.22
2018-07-20T12:03:15.831Z,29.22
2018-07-20T12:05:44.153Z,29.13
2018-07-20T12:08:12.468Z,29.07
2018-07-20T12:10:40.846Z,29.04
2018-07-20T12:13:09.202Z,29.05
2018-07-20T12:15:37.530Z,28.85
2018-07-20T12:18:05.965Z,28.98
2018-07-20T12:20:34.268Z,28.76
2018-07-20T12:23:02.600Z,28.81
2018-07-20T12:25:30.947Z,28.70
2018-07-20T12:27:59.271Z,28.82
2018-07-20T12:30:27.620Z,28.76
2018-07-20T12:32:55.953Z,28.66
2018-07-20T12:35:24.303Z,28.73
2018-07-20T12:37:52.620Z,28.51
2018-07-20T12:40:21.011Z,28.52
2018-07-20T12:42:49.364Z,28.45
2018-07-20T12:45:17.693Z,28.51
2018-07-20T12:47:46.068Z,28.55
2018-07-20T12:50:14.456Z,28.38
2018-07-20T12:52:42.726Z,28.34
2018-07-20T12:55:11.059Z,28.34
2018-07-20T12:57:39.379Z,28.25
2018-07-20T13:00:07.714Z,28.10
2018-07-20T13:02:36.032Z,28.07
2018-07-20T13:05:04.724Z,27.89
2018-07-20T13:07:33.055Z,27.88
2018-07-20T13:10:01.361Z,27.88
2018-07-20T13:12:29.691Z,27.94
2018-07-20T13:14:57.994Z,27.94
2018-07-20T13:17:26.323Z,27.87
2018-07-20T13:19:54.642Z,27.92
2018-07-20T13:22:22.973Z,27.75
2018-07-20T13:24:51.341Z,27.75
2018-07-20T13:27:19.665Z,27.85
2018-07-20T13:29:47.992Z,27.88
2018-07-20T13:32:16.353Z,28.05
2018-07-20T13:34:45.746Z,28.05
2018-07-20T13:37:14.076Z,27.97
2018-07-20T13:39:42.410Z,27.99
2018-07-20T13:42:10.744Z,27.96
2018-07-20T13:44:39.047Z,27.82
2018-07-20T13:47:07.360Z,27.69
2018-07-20T13:49:35.687Z,27.65
2018-07-20T13:52:04.042Z,27.62
2018-07-20T13:54:32.402Z,27.65
2018-07-20T13:57:00.716Z,27.63
2018-07-20T13:59:29.050Z,27.65
2018-07-20T14:01:57.373Z,27.60
2018-07-20T14:04:25.694Z,27.62
2018-07-20T14:06:54.052Z,27.64
2018-07-20T14:09:22.510Z,27.64
2018-07-20T14:11:50.851Z,27.58
2018-07-20T14:14:19.218Z,27.61
2018-07-20T14:16:47.614Z,27.43
2018-07-20T14:19:15.922Z,27.50
2018-07-20T14:21:44.252Z,27.49
2018-07-20T14:24:12.578Z,27.47
2018-07-20T14:26:40.915Z,27.44
2018-07-20T14:29:09.238Z,27.43
2018-07-20T14:31:37.628Z,27.38
2018-07-20T14:34:05.997Z,27.28
2018-07-20T14:36:34.341Z,27.35
2018-07-20T14:39:02.692Z,27.30
2018-07-20T14:41:31.010Z,27.37
2018-07-20T14:43:59.362Z,27.42
2018-07-20T14:46:27.671Z,27.41
2018-07-20T14:48:56.013Z,27.41
2018-07-20T14:51:24.397Z,27.42
2018-07-20T14:53:52.704Z,27.41
2018-07-20T14:56:21.029Z,27.40
2018-07-20T14:58:49.407Z,27.35
2018-07-20T15:01:17.760Z,27.37
2018-07-20T15:03:46.077Z,27.26
2018-07-20T15:06:14.444Z,27.23
2018-07-20T15:08:42.856Z,27.18
2018-07-20T15:11:11.219Z,27.18
2018-07-20T15:13:39.554Z,27.20
2018-07-20T15:16:07.955Z,27.11
2018-07-20T15:18:36.320Z,27.08
2018-07-20T15:21:04.635Z,27.06
2018-07-20T15:23:33.063Z,27.02
2018-07-20T15:26:01.351Z,27.01
2018-07-20T15:28:29.690Z,27.01
2018-07-20T15:30:58.006Z,27.02
2018-07-20T15:33:26.376Z,26.98
2018-07-20T15:35:54.727Z,26.96
2018-07-20T15:38:23.099Z,26.94
2018-07-20T15:40:51.437Z,26.87
2018-07-20T15:43:19.772Z,26.82
2018-07-20T15:45:52.100Z,26.85
2018-07-20T15:48:16.455Z,26.82
2018-07-20T15:50:44.795Z,26.79
2018-07-20T15:53:39.824Z,26.75
2018-07-20T15:55:41.557Z,26.74
2018-07-20T15:58:09.874Z,26.73
2018-07-20T16:00:38.204Z,26.71
2018-07-20T16:03:06.657Z,26.68
2018-07-20T16:05:35.043Z,26.66
2018-07-20T16:08:03.375Z,26.62
2018-07-20T16:10:31.702Z,26.62
2018-07-20T16:13:00.065Z,26.51
2018-07-20T16:15:28.405Z,26.51
2018-07-20T16:17:56.740Z,26.47
2018-07-20T16:20:25.080Z,26.49
2018-07-20T16:22:53.441Z,26.47
2018-07-20T16:25:21.764Z,26.46
2018-07-20T16:27:50.126Z,26.45
2018-07-20T16:30:18.451Z,26.44
2018-07-20T16:32:46.768Z,26.39
2018-07-20T16:35:15.120Z,26.34
2018-07-20T16:37:43.462Z,26.33
2018-07-20T16:40:11.824Z,26.34
2018-07-20T16:42:40.224Z,26.32
2018-07-20T16:45:08.549Z,26.29
2018-07-20T16:47:36.868Z,26.27
2018-07-20T16:50:05.480Z,26.25
2018-07-20T16:52:33.829Z,26.21
2018-07-20T16:55:02.176Z,26.20
2018-07-20T16:57:30.510Z,26.17
2018-07-20T16:59:58.853Z,26.14
2018-07-20T17:02:27.200Z,26.12
2018-07-20T17:04:55.547Z,26.07
2018-07-20T17:07:23.915Z,26.08
2018-07-20T17:09:52.234Z,26.08
2018-07-20T17:12:20.592Z,26.05
2018-07-20T17:14:48.919Z,26.05
2018-07-20T17:17:17.360Z,25.96
2018-07-20T17:19:45.722Z,25.95
2018-07-20T17:22:14.028Z,25.93
2018-07-20T17:24:42.396Z,25.87
2018-07-20T17:27:10.732Z,25.84
2018-07-20T17:29:39.068Z,25.83
2018-07-20T17:32:07.442Z,25.82
2018-07-20T17:34:35.748Z,25.80
2018-07-20T17:37:04.134Z,25.76
2018-07-20T17:39:32.449Z,25.75
2018-07-20T17:42:00.765Z,25.73
2018-07-20T17:44:29.066Z,25.71
2018-07-20T17:46:57.379Z,25.71
2018-07-20T17:49:25.705Z,25.67
2018-07-20T17:51:54.052Z,25.64
2018-07-20T17:54:22.370Z,25.64
2018-07-20T17:56:50.734Z,25.61
2018-07-20T17:59:19.191Z,25.57
2018-07-20T18:01:47.524Z,25.56
2018-07-20T18:04:15.844Z,25.54
2018-07-20T18:06:44.208Z,25.49
2018-07-20T18:09:12.584Z,25.44
2018-07-20T18:11:40.946Z,25.44
2018-07-20T18:14:09.284Z,25.39
2018-07-20T18:16:37.596Z,25.38
2018-07-20T18:19:05.940Z,25.33
2018-07-20T18:21:34.279Z,25.30
2018-07-20T18:24:02.612Z,25.28
2018-07-20T18:26:30.976Z,25.26
2018-07-20T18:28:59.278Z,25.19
2018-07-20T18:31:27.671Z,25.15
2018-07-20T18:33:56.142Z,25.14
2018-07-20T18:36:24.365Z,25.08
2018-07-20T18:38:52.797Z,25.04
2018-07-20T18:41:21.122Z,25.02
2018-07-20T18:43:49.473Z,24.95
2018-07-20T18:46:17.830Z,24.91
2018-07-20T18:48:46.138Z,24.85
2018-07-20T18:51:14.491Z,24.81
2018-07-20T18:53:42.837Z,24.77
2018-07-20T18:56:11.172Z,24.74
2018-07-20T18:58:39.537Z,24.70
2018-07-20T19:01:08.001Z,24.65
2018-07-20T19:03:36.328Z,24.56
2018-07-20T19:06:04.655Z,24.53
2018-07-20T19:08:32.984Z,24.49
2018-07-20T19:11:01.306Z,24.45
2018-07-20T19:13:29.717Z,24.39
2018-07-20T19:15:58.044Z,24.34
2018-07-20T19:18:26.484Z,24.26
2018-07-20T19:20:54.864Z,24.26
2018-07-20T19:23:23.282Z,24.21
2018-07-20T19:25:51.620Z,24.14
2018-07-20T19:28:19.977Z,24.08
2018-07-20T19:30:48.318Z,24.06
2018-07-20T19:33:16.615Z,23.99
2018-07-20T19:35:44.918Z,23.93
2018-07-20T19:38:13.322Z,23.88
2018-07-20T19:40:41.642Z,23.82
2018-07-20T19:43:10.037Z,23.80
2018-07-20T19:45:38.394Z,23.76
2018-07-20T19:48:06.727Z,23.69
2018-07-20T19:50:35.078Z,23.64
2018-07-20T19:53:03.463Z,23.63
2018-07-20T19:55:31.803Z,23.58
2018-07-20T19:58:00.123Z,23.51
2018-07-20T20:00:28.454Z,23.50
2018-07-20T20:02:56.794Z,23.44
2018-07-20T20:05:25.119Z,23.39
2018-07-20T20:07:53.455Z,23.35
2018-07-20T20:10:21.804Z,23.31
2018-07-20T20:12:50.265Z,23.27
2018-07-20T20:15:18.657Z,23.21
2018-07-20T20:17:46.983Z,23.18
2018-07-20T20:20:15.312Z,23.16
2018-07-20T20:22:44.697Z,23.12
2018-07-20T20:25:13.128Z,23.09
2018-07-20T20:27:41.879Z,23.03
2018-07-20T20:30:10.228Z,22.98
2018-07-20T20:32:38.603Z,22.94
2018-07-20T20:35:06.982Z,22.88
2018-07-20T20:37:35.329Z,22.86
2018-07-20T20:40:03.666Z,22.84
2018-07-20T20:42:31.971Z,22.82
2018-07-20T20:45:00.298Z,22.77
2018-07-20T20:47:28.610Z,22.73
2018-07-20T20:49:56.958Z,22.69
2018-07-20T20:52:25.334Z,22.67
2018-07-20T20:54:53.648Z,22.63
2018-07-20T20:57:21.984Z,22.57
2018-07-20T20:59:50.307Z,22.55
2018-07-20T21:02:18.683Z,22.52
2018-07-20T21:04:47.093Z,22.49
2018-07-20T21:07:15.416Z,22.47
2018-07-20T21:09:43.739Z,22.42
2018-07-20T21:12:12.253Z,22.39
2018-07-20T21:14:40.390Z,22.38
2018-07-20T21:17:08.717Z,22.33
2018-07-20T21:19:37.040Z,22.30
2018-07-20T21:22:05.393Z,22.31
2018-07-20T21:24:33.695Z,22.27
2018-07-20T21:27:02.050Z,22.24
2018-07-20T21:29:30.356Z,22.22
2018-07-20T21:31:58.712Z,22.20
2018-07-20T21:34:27.165Z,22.18
2018-07-20T21:36:55.474Z,22.13
2018-07-20T21:39:23.788Z,22.10
2018-07-20T21:41:52.128Z,22.09
2018-07-20T21:44:20.461Z,22.07
2018-07-20T21:46:48.780Z,22.05
2018-07-20T21:49:17.099Z,21.99
2018-07-20T21:51:45.436Z,21.98
2018-07-20T21:54:13.786Z,21.95
2018-07-20T21:56:42.137Z,21.91
2018-07-20T21:59:10.495Z,21.88
2018-07-20T22:01:38.822Z,21.85
2018-07-20T22:04:07.146Z,21.82
2018-07-20T22:06:35.515Z,21.80
2018-07-20T22:09:04.700Z,21.77
2018-07-20T22:11:33.035Z,21.71
2018-07-20T22:14:01.363Z,21.71
2018-07-20T22:16:29.732Z,21.70
2018-07-20T22:18:58.139Z,21.63
2018-07-20T22:21:26.469Z,21.59
2018-07-20T22:23:54.769Z,21.59
2018-07-20T22:26:23.093Z,21.57
2018-07-20T22:28:51.431Z,21.51
2018-07-20T22:31:19.766Z,21.49
2018-07-20T22:33:48.090Z,21.46
2018-07-20T22:36:16.462Z,21.44
2018-07-20T22:38:44.780Z,21.41
2018-07-20T22:41:13.074Z,21.41
2018-07-20T22:43:41.404Z,21.36
2018-07-20T22:46:09.780Z,21.31
2018-07-20T22:48:38.095Z,21.30
2018-07-20T22:51:06.471Z,21.25
2018-07-20T22:53:34.853Z,21.21
2018-07-20T22:56:03.164Z,21.21
2018-07-20T22:58:31.477Z,21.15
2018-07-20T23:00:59.805Z,21.14
2018-07-20T23:03:28.161Z,21.13
2018-07-20T23:05:56.500Z,21.11
2018-07-20T23:08:24.821Z,21.06
2018-07-20T23:10:53.156Z,21.04
2018-07-20T23:13:21.502Z,21.01
2018-07-20T23:15:49.815Z,20.97
2018-07-20T23:18:18.134Z,20.93
2018-07-20T23:20:46.479Z,20.89
2018-07-20T23:23:14.822Z,20.83
2018-07-20T23:25:43.137Z,20.82
2018-07-20T23:28:11.473Z,20.77
2018-07-20T23:30:39.799Z,20.77
2018-07-20T23:33:08.136Z,20.77
2018-07-20T23:35:36.458Z,20.75
2018-07-20T23:38:04.892Z,20.72
2018-07-20T23:40:33.225Z,20.70
2018-07-20T23:43:01.556Z,20.71
2018-07-20T23:45:29.895Z,20.67
2018-07-20T23:47:58.318Z,20.66
2018-07-20T23:50:26.651Z,20.62
2018-07-20T23:52:54.996Z,20.64
2018-07-20T23:55:23.324Z,20.61
2018-07-20T23:57:51.689Z,20.55
